Mayport, Florida
Current Conditions -  °F | °C
As of 10:52 AM on Saturday 22 Nov 2014 (Local Time) from KNRB Reporting Station
Overcast Overcast  
Wind Chill: 70°   Ceiling: 5500
Heat Index: 70°   Visibility: 10mi
Dew Point: 60°   Wind: 16mph
Humidity: 71%   Direction: 80°E
Pressure: 30.33"   Gusts: NA
Location:  30.4°N, 81.42°W
Report Text: KNRB 221552Z AUTO 08014KT 10SM OVC055 21/16 A3033 RMK AO2 SLP271 T02110156 $
Loading
Personal Weather Stations






























Interactive Weather Map New forecast layout! Learn more

10-Day Weather Forecast

Advertisements
Track Severe Weather on mobile